KSYF

Cheyenne County Municipal Airport

St Francis, Kansas, USA
METAR KSYF 182235Z AUTO 11004KT 10SM BKN046 28/14 A2998 RMK AO2 T02810142
Observed Flight Rules
Jun-18 @ 22:35 UTC (10 minutes ago) Visual Flight Rules
Wind Visibility Clouds
110° at 4 knots 10 miles
  • Broken at 4,600' AGL
Temperatures Readings
Current 28°C / 82°F
Dewpoint 14°C / 57°F
Humidity 42%
Altimeter 29.98" Hg
Pressure 1015 hPa
Elevation 1025
METAR KSYF 182235Z AUTO 11004KT 10SM BKN046 28/14 A2998 RMK AO2 T02810142
Observed Flight Rules
Jun-18 @ 22:35 UTC
(10 minutes ago)
VFR
Wind Visibility
110° at 4 knots 10 miles
Clouds
  • Broken at 4,600' AGL
Temperature Dewpoint
28°C / 82°F 14°C / 57°F
Humidity Altimeter Pressure
42% 29.98" Hg 1015 hPa